sensor_id;sensor_type;location;lat;lon;timestamp;P1;durP1;ratioP1;P2;durP2;ratioP2
1691;SDS011;843;52.054;8.552;2023-12-14T00:01:15;11.70;;;8.13;;
1691;SDS011;843;52.054;8.552;2023-12-14T00:03:42;13.93;;;7.30;;
1691;SDS011;843;52.054;8.552;2023-12-14T00:06:09;17.70;;;8.47;;
1691;SDS011;843;52.054;8.552;2023-12-14T00:08:35;17.50;;;8.23;;
1691;SDS011;843;52.054;8.552;2023-12-14T00:11:04;13.20;;;8.10;;
1691;SDS011;843;52.054;8.552;2023-12-14T00:13:31;11.37;;;8.17;;
1691;SDS011;843;52.054;8.552;2023-12-14T00:15:57;13.17;;;8.13;;
1691;SDS011;843;52.054;8.552;2023-12-14T00:18:23;10.67;;;7.03;;
1691;SDS011;843;52.054;8.552;2023-12-14T00:20:50;11.43;;;7.87;;
1691;SDS011;843;52.054;8.552;2023-12-14T00:23:17;15.13;;;8.50;;
1691;SDS011;843;52.054;8.552;2023-12-14T00:25:44;14.90;;;8.03;;
1691;SDS011;843;52.054;8.552;2023-12-14T00:28:11;11.47;;;8.27;;
1691;SDS011;843;52.054;8.552;2023-12-14T00:30:38;11.80;;;6.80;;
1691;SDS011;843;52.054;8.552;2023-12-14T00:33:05;14.30;;;7.93;;
1691;SDS011;843;52.054;8.552;2023-12-14T00:35:31;11.60;;;8.03;;
1691;SDS011;843;52.054;8.552;2023-12-14T00:37:58;11.43;;;7.33;;
1691;SDS011;843;52.054;8.552;2023-12-14T00:40:24;11.37;;;7.60;;
1691;SDS011;843;52.054;8.552;2023-12-14T00:42:51;13.83;;;8.50;;
1691;SDS011;843;52.054;8.552;2023-12-14T00:45:18;13.73;;;9.40;;
1691;SDS011;843;52.054;8.552;2023-12-14T00:47:45;14.10;;;8.40;;
1691;SDS011;843;52.054;8.552;2023-12-14T00:50:11;14.93;;;8.03;;
1691;SDS011;843;52.054;8.552;2023-12-14T00:52:38;14.73;;;8.13;;
1691;SDS011;843;52.054;8.552;2023-12-14T00:55:04;10.93;;;6.93;;
1691;SDS011;843;52.054;8.552;2023-12-14T00:57:31;13.97;;;7.80;;
1691;SDS011;843;52.054;8.552;2023-12-14T00:59:57;11.13;;;7.50;;
1691;SDS011;843;52.054;8.552;2023-12-14T01:02:25;12.13;;;7.17;;
1691;SDS011;843;52.054;8.552;2023-12-14T01:04:51;16.53;;;7.33;;
1691;SDS011;843;52.054;8.552;2023-12-14T01:07:18;12.67;;;7.53;;
1691;SDS011;843;52.054;8.552;2023-12-14T01:09:44;12.73;;;7.63;;
1691;SDS011;843;52.054;8.552;2023-12-14T01:12:10;16.40;;;8.23;;
1691;SDS011;843;52.054;8.552;2023-12-14T01:14:37;12.90;;;7.87;;
1691;SDS011;843;52.054;8.552;2023-12-14T01:17:03;10.00;;;6.87;;
1691;SDS011;843;52.054;8.552;2023-12-14T01:19:31;10.70;;;5.83;;
1691;SDS011;843;52.054;8.552;2023-12-14T01:21:57;12.90;;;6.50;;
1691;SDS011;843;52.054;8.552;2023-12-14T01:24:24;11.57;;;7.07;;
1691;SDS011;843;52.054;8.552;2023-12-14T01:26:50;11.50;;;7.80;;
1691;SDS011;843;52.054;8.552;2023-12-14T01:29:17;10.20;;;7.03;;
1691;SDS011;843;52.054;8.552;2023-12-14T01:31:43;10.77;;;7.00;;
1691;SDS011;843;52.054;8.552;2023-12-14T01:34:09;9.70;;;6.20;;
1691;SDS011;843;52.054;8.552;2023-12-14T01:36:38;12.17;;;7.53;;
1691;SDS011;843;52.054;8.552;2023-12-14T01:39:05;11.07;;;7.30;;
1691;SDS011;843;52.054;8.552;2023-12-14T01:41:31;10.53;;;6.63;;
1691;SDS011;843;52.054;8.552;2023-12-14T01:43:58;12.67;;;7.03;;
1691;SDS011;843;52.054;8.552;2023-12-14T01:46:25;10.50;;;7.17;;
1691;SDS011;843;52.054;8.552;2023-12-14T01:48:52;10.73;;;7.30;;
1691;SDS011;843;52.054;8.552;2023-12-14T01:51:18;10.90;;;6.87;;
1691;SDS011;843;52.054;8.552;2023-12-14T01:53:46;14.13;;;7.00;;
1691;SDS011;843;52.054;8.552;2023-12-14T01:56:12;12.53;;;6.63;;
1691;SDS011;843;52.054;8.552;2023-12-14T01:58:39;8.80;;;5.40;;
1691;SDS011;843;52.054;8.552;2023-12-14T02:01:07;9.93;;;6.37;;
1691;SDS011;843;52.054;8.552;2023-12-14T02:03:34;7.23;;;5.40;;
1691;SDS011;843;52.054;8.552;2023-12-14T02:06:01;10.20;;;6.10;;
1691;SDS011;843;52.054;8.552;2023-12-14T02:08:27;9.03;;;6.13;;
1691;SDS011;843;52.054;8.552;2023-12-14T02:10:55;10.27;;;6.60;;
1691;SDS011;843;52.054;8.552;2023-12-14T02:13:21;7.03;;;5.77;;
1691;SDS011;843;52.054;8.552;2023-12-14T02:15:48;9.07;;;6.33;;
1691;SDS011;843;52.054;8.552;2023-12-14T02:18:14;10.20;;;6.13;;
1691;SDS011;843;52.054;8.552;2023-12-14T02:20:41;8.30;;;6.30;;
1691;SDS011;843;52.054;8.552;2023-12-14T02:23:09;9.73;;;6.80;;
1691;SDS011;843;52.054;8.552;2023-12-14T02:25:35;10.20;;;6.57;;
1691;SDS011;843;52.054;8.552;2023-12-14T02:28:02;8.87;;;6.27;;
1691;SDS011;843;52.054;8.552;2023-12-14T02:30:28;10.70;;;7.10;;
1691;SDS011;843;52.054;8.552;2023-12-14T02:32:55;9.80;;;7.03;;
1691;SDS011;843;52.054;8.552;2023-12-14T02:35:21;8.90;;;7.00;;
1691;SDS011;843;52.054;8.552;2023-12-14T02:37:48;8.37;;;5.53;;
1691;SDS011;843;52.054;8.552;2023-12-14T02:40:16;11.20;;;6.70;;
1691;SDS011;843;52.054;8.552;2023-12-14T02:42:43;9.83;;;6.73;;
1691;SDS011;843;52.054;8.552;2023-12-14T02:45:09;9.27;;;6.70;;
1691;SDS011;843;52.054;8.552;2023-12-14T02:47:36;13.67;;;7.77;;
1691;SDS011;843;52.054;8.552;2023-12-14T02:50:02;11.30;;;7.43;;
1691;SDS011;843;52.054;8.552;2023-12-14T02:52:29;10.20;;;7.20;;
1691;SDS011;843;52.054;8.552;2023-12-14T02:54:55;10.23;;;8.00;;
1691;SDS011;843;52.054;8.552;2023-12-14T02:57:23;13.50;;;8.17;;
1691;SDS011;843;52.054;8.552;2023-12-14T02:59:49;12.97;;;7.80;;
1691;SDS011;843;52.054;8.552;2023-12-14T03:02:16;10.60;;;7.37;;
1691;SDS011;843;52.054;8.552;2023-12-14T03:04:42;13.10;;;7.90;;
1691;SDS011;843;52.054;8.552;2023-12-14T03:07:09;12.53;;;8.60;;
1691;SDS011;843;52.054;8.552;2023-12-14T03:09:38;12.07;;;8.03;;
1691;SDS011;843;52.054;8.552;2023-12-14T03:12:06;13.63;;;8.40;;
1691;SDS011;843;52.054;8.552;2023-12-14T03:14:34;13.93;;;8.87;;
1691;SDS011;843;52.054;8.552;2023-12-14T03:17:00;13.30;;;7.33;;
1691;SDS011;843;52.054;8.552;2023-12-14T03:19:27;12.63;;;8.53;;
1691;SDS011;843;52.054;8.552;2023-12-14T03:21:53;12.73;;;8.73;;
1691;SDS011;843;52.054;8.552;2023-12-14T03:24:20;15.07;;;9.37;;
1691;SDS011;843;52.054;8.552;2023-12-14T03:26:46;13.93;;;9.10;;
1691;SDS011;843;52.054;8.552;2023-12-14T03:29:13;11.07;;;8.57;;
1691;SDS011;843;52.054;8.552;2023-12-14T03:31:40;14.37;;;8.80;;
1691;SDS011;843;52.054;8.552;2023-12-14T03:34:07;19.43;;;9.27;;
1691;SDS011;843;52.054;8.552;2023-12-14T03:36:33;12.87;;;8.63;;
1691;SDS011;843;52.054;8.552;2023-12-14T03:38:59;13.37;;;9.70;;
1691;SDS011;843;52.054;8.552;2023-12-14T03:41:26;12.27;;;8.23;;
1691;SDS011;843;52.054;8.552;2023-12-14T03:43:52;13.67;;;8.50;;
1691;SDS011;843;52.054;8.552;2023-12-14T03:46:19;16.20;;;10.40;;
1691;SDS011;843;52.054;8.552;2023-12-14T03:48:46;12.30;;;8.90;;
1691;SDS011;843;52.054;8.552;2023-12-14T03:51:13;12.70;;;9.37;;
1691;SDS011;843;52.054;8.552;2023-12-14T03:53:42;16.63;;;9.57;;
1691;SDS011;843;52.054;8.552;2023-12-14T03:56:08;11.93;;;8.03;;
1691;SDS011;843;52.054;8.552;2023-12-14T03:58:35;14.23;;;9.23;;
1691;SDS011;843;52.054;8.552;2023-12-14T04:01:01;13.30;;;9.37;;
1691;SDS011;843;52.054;8.552;2023-12-14T04:03:28;14.30;;;8.60;;
1691;SDS011;843;52.054;8.552;2023-12-14T04:05:55;13.10;;;9.37;;
1691;SDS011;843;52.054;8.552;2023-12-14T04:08:22;13.87;;;8.87;;
1691;SDS011;843;52.054;8.552;2023-12-14T04:10:48;15.70;;;9.60;;
1691;SDS011;843;52.054;8.552;2023-12-14T04:13:15;18.63;;;11.80;;
1691;SDS011;843;52.054;8.552;2023-12-14T04:15:41;19.70;;;10.10;;
1691;SDS011;843;52.054;8.552;2023-12-14T04:18:08;16.90;;;11.33;;
1691;SDS011;843;52.054;8.552;2023-12-14T04:20:34;17.20;;;11.93;;
1691;SDS011;843;52.054;8.552;2023-12-14T04:23:02;18.87;;;11.97;;
1691;SDS011;843;52.054;8.552;2023-12-14T04:25:28;19.00;;;11.37;;
1691;SDS011;843;52.054;8.552;2023-12-14T04:27:55;18.07;;;12.90;;
1691;SDS011;843;52.054;8.552;2023-12-14T04:30:21;18.30;;;11.47;;
1691;SDS011;843;52.054;8.552;2023-12-14T04:32:47;21.73;;;12.87;;
1691;SDS011;843;52.054;8.552;2023-12-14T04:35:14;20.60;;;11.93;;
1691;SDS011;843;52.054;8.552;2023-12-14T04:37:40;19.50;;;11.77;;
1691;SDS011;843;52.054;8.552;2023-12-14T04:40:09;17.77;;;11.67;;
1691;SDS011;843;52.054;8.552;2023-12-14T04:42:36;17.60;;;11.43;;
1691;SDS011;843;52.054;8.552;2023-12-14T04:45:02;17.07;;;11.30;;
1691;SDS011;843;52.054;8.552;2023-12-14T04:47:29;20.73;;;11.60;;
1691;SDS011;843;52.054;8.552;2023-12-14T04:49:55;17.80;;;12.37;;
1691;SDS011;843;52.054;8.552;2023-12-14T04:52:21;19.97;;;11.07;;
1691;SDS011;843;52.054;8.552;2023-12-14T04:54:48;21.10;;;11.90;;
1691;SDS011;843;52.054;8.552;2023-12-14T04:57:16;17.03;;;12.03;;
1691;SDS011;843;52.054;8.552;2023-12-14T04:59:43;17.37;;;11.13;;
1691;SDS011;843;52.054;8.552;2023-12-14T05:02:09;17.57;;;11.40;;
1691;SDS011;843;52.054;8.552;2023-12-14T05:04:36;15.47;;;10.23;;
1691;SDS011;843;52.054;8.552;2023-12-14T05:07:02;18.03;;;11.13;;
1691;SDS011;843;52.054;8.552;2023-12-14T05:09:28;16.93;;;11.10;;
1691;SDS011;843;52.054;8.552;2023-12-14T05:11:55;15.30;;;10.20;;
1691;SDS011;843;52.054;8.552;2023-12-14T05:14:23;17.07;;;11.47;;
1691;SDS011;843;52.054;8.552;2023-12-14T05:16:49;18.33;;;11.87;;
1691;SDS011;843;52.054;8.552;2023-12-14T05:19:16;20.10;;;13.70;;
1691;SDS011;843;52.054;8.552;2023-12-14T05:21:43;17.40;;;12.17;;
1691;SDS011;843;52.054;8.552;2023-12-14T05:24:10;17.57;;;12.37;;
1691;SDS011;843;52.054;8.552;2023-12-14T05:26:36;18.50;;;11.30;;
1691;SDS011;843;52.054;8.552;2023-12-14T05:29:02;17.00;;;11.57;;
1691;SDS011;843;52.054;8.552;2023-12-14T05:31:30;15.63;;;11.87;;
1691;SDS011;843;52.054;8.552;2023-12-14T05:33:57;15.53;;;11.77;;
1691;SDS011;843;52.054;8.552;2023-12-14T05:36:23;14.20;;;10.33;;
1691;SDS011;843;52.054;8.552;2023-12-14T05:38:49;10.60;;;9.10;;
1691;SDS011;843;52.054;8.552;2023-12-14T05:41:16;13.90;;;10.17;;
1691;SDS011;843;52.054;8.552;2023-12-14T05:43:42;11.87;;;8.60;;
1691;SDS011;843;52.054;8.552;2023-12-14T05:46:09;12.10;;;8.97;;
1691;SDS011;843;52.054;8.552;2023-12-14T05:48:36;12.60;;;9.10;;
1691;SDS011;843;52.054;8.552;2023-12-14T05:51:03;14.10;;;9.63;;
1691;SDS011;843;52.054;8.552;2023-12-14T05:53:30;9.77;;;8.60;;
1691;SDS011;843;52.054;8.552;2023-12-14T05:55:57;13.23;;;9.50;;
1691;SDS011;843;52.054;8.552;2023-12-14T05:58:24;13.87;;;8.37;;
1691;SDS011;843;52.054;8.552;2023-12-14T06:00:50;10.17;;;8.00;;
1691;SDS011;843;52.054;8.552;2023-12-14T06:03:17;13.67;;;8.80;;
1691;SDS011;843;52.054;8.552;2023-12-14T06:05:44;13.57;;;9.80;;
1691;SDS011;843;52.054;8.552;2023-12-14T06:08:11;12.87;;;9.10;;
1691;SDS011;843;52.054;8.552;2023-12-14T06:10:37;11.90;;;10.47;;
1691;SDS011;843;52.054;8.552;2023-12-14T06:13:04;14.77;;;10.90;;
1691;SDS011;843;52.054;8.552;2023-12-14T06:15:31;13.40;;;11.27;;
1691;SDS011;843;52.054;8.552;2023-12-14T06:17:57;13.50;;;10.50;;
1691;SDS011;843;52.054;8.552;2023-12-14T06:20:24;13.33;;;10.00;;
1691;SDS011;843;52.054;8.552;2023-12-14T06:22:52;15.50;;;11.30;;
1691;SDS011;843;52.054;8.552;2023-12-14T06:25:19;16.83;;;10.07;;
1691;SDS011;843;52.054;8.552;2023-12-14T06:27:45;14.63;;;9.97;;
1691;SDS011;843;52.054;8.552;2023-12-14T06:30:12;14.07;;;10.17;;
1691;SDS011;843;52.054;8.552;2023-12-14T06:32:39;14.80;;;11.07;;
1691;SDS011;843;52.054;8.552;2023-12-14T06:35:05;14.73;;;11.50;;
1691;SDS011;843;52.054;8.552;2023-12-14T06:37:32;16.10;;;11.47;;
1691;SDS011;843;52.054;8.552;2023-12-14T06:40:00;12.80;;;10.60;;
1691;SDS011;843;52.054;8.552;2023-12-14T06:42:26;15.80;;;10.77;;
1691;SDS011;843;52.054;8.552;2023-12-14T06:44:53;13.77;;;10.67;;
1691;SDS011;843;52.054;8.552;2023-12-14T06:47:20;13.43;;;11.10;;
1691;SDS011;843;52.054;8.552;2023-12-14T06:49:46;13.50;;;10.60;;
1691;SDS011;843;52.054;8.552;2023-12-14T06:52:13;12.87;;;10.23;;
1691;SDS011;843;52.054;8.552;2023-12-14T06:54:39;12.23;;;10.90;;
1691;SDS011;843;52.054;8.552;2023-12-14T06:57:07;12.30;;;10.53;;
1691;SDS011;843;52.054;8.552;2023-12-14T06:59:33;14.70;;;11.10;;
1691;SDS011;843;52.054;8.552;2023-12-14T07:02:00;14.03;;;11.90;;
1691;SDS011;843;52.054;8.552;2023-12-14T07:04:26;12.30;;;10.03;;
1691;SDS011;843;52.054;8.552;2023-12-14T07:06:53;12.80;;;10.00;;
1691;SDS011;843;52.054;8.552;2023-12-14T07:09:19;11.23;;;9.43;;
1691;SDS011;843;52.054;8.552;2023-12-14T07:11:45;14.33;;;11.63;;
1691;SDS011;843;52.054;8.552;2023-12-14T07:14:13;12.57;;;9.50;;
1691;SDS011;843;52.054;8.552;2023-12-14T07:16:40;9.77;;;8.77;;
1691;SDS011;843;52.054;8.552;2023-12-14T07:19:07;10.93;;;8.87;;
1691;SDS011;843;52.054;8.552;2023-12-14T07:21:33;10.60;;;9.57;;
1691;SDS011;843;52.054;8.552;2023-12-14T07:23:59;12.93;;;11.53;;
1691;SDS011;843;52.054;8.552;2023-12-14T07:26:26;12.83;;;10.57;;
1691;SDS011;843;52.054;8.552;2023-12-14T07:28:52;11.47;;;9.40;;
1691;SDS011;843;52.054;8.552;2023-12-14T07:31:21;14.37;;;10.30;;
1691;SDS011;843;52.054;8.552;2023-12-14T07:33:47;13.33;;;11.10;;
1691;SDS011;843;52.054;8.552;2023-12-14T07:36:13;11.50;;;9.73;;
1691;SDS011;843;52.054;8.552;2023-12-14T07:38:40;13.20;;;10.07;;
1691;SDS011;843;52.054;8.552;2023-12-14T07:41:06;12.20;;;10.47;;
1691;SDS011;843;52.054;8.552;2023-12-14T07:43:32;11.03;;;9.70;;
1691;SDS011;843;52.054;8.552;2023-12-14T07:45:59;12.27;;;9.50;;
1691;SDS011;843;52.054;8.552;2023-12-14T07:48:27;13.87;;;11.00;;
1691;SDS011;843;52.054;8.552;2023-12-14T07:50:54;11.67;;;9.73;;
1691;SDS011;843;52.054;8.552;2023-12-14T07:53:21;13.87;;;11.30;;
1691;SDS011;843;52.054;8.552;2023-12-14T07:55:47;12.20;;;10.63;;
1691;SDS011;843;52.054;8.552;2023-12-14T07:58:13;13.43;;;10.40;;
1691;SDS011;843;52.054;8.552;2023-12-14T08:00:40;12.40;;;9.90;;
1691;SDS011;843;52.054;8.552;2023-12-14T08:03:06;10.37;;;9.23;;
1691;SDS011;843;52.054;8.552;2023-12-14T08:05:34;9.80;;;8.80;;
1691;SDS011;843;52.054;8.552;2023-12-14T08:08:00;10.00;;;9.00;;
1691;SDS011;843;52.054;8.552;2023-12-14T08:10:27;11.37;;;9.33;;
1691;SDS011;843;52.054;8.552;2023-12-14T08:12:53;11.83;;;9.13;;
1691;SDS011;843;52.054;8.552;2023-12-14T08:15:20;10.27;;;9.27;;
1691;SDS011;843;52.054;8.552;2023-12-14T08:17:46;9.37;;;8.47;;
1691;SDS011;843;52.054;8.552;2023-12-14T08:20:12;9.57;;;8.57;;
1691;SDS011;843;52.054;8.552;2023-12-14T08:22:41;9.63;;;8.73;;
1691;SDS011;843;52.054;8.552;2023-12-14T08:25:10;12.60;;;10.10;;
1691;SDS011;843;52.054;8.552;2023-12-14T08:27:37;11.03;;;9.97;;
1691;SDS011;843;52.054;8.552;2023-12-14T08:30:03;10.53;;;9.60;;
1691;SDS011;843;52.054;8.552;2023-12-14T08:32:30;11.47;;;10.37;;
1691;SDS011;843;52.054;8.552;2023-12-14T08:34:56;11.43;;;10.20;;
1691;SDS011;843;52.054;8.552;2023-12-14T08:37:23;11.70;;;10.50;;
1691;SDS011;843;52.054;8.552;2023-12-14T08:39:51;11.40;;;10.40;;
1691;SDS011;843;52.054;8.552;2023-12-14T08:42:17;10.90;;;9.80;;
1691;SDS011;843;52.054;8.552;2023-12-14T08:44:44;12.17;;;10.60;;
1691;SDS011;843;52.054;8.552;2023-12-14T08:47:10;12.33;;;11.00;;
1691;SDS011;843;52.054;8.552;2023-12-14T08:49:36;12.47;;;10.63;;
1691;SDS011;843;52.054;8.552;2023-12-14T08:52:03;11.20;;;10.10;;
1691;SDS011;843;52.054;8.552;2023-12-14T08:54:30;13.17;;;10.20;;
1691;SDS011;843;52.054;8.552;2023-12-14T08:56:58;11.77;;;10.57;;
1691;SDS011;843;52.054;8.552;2023-12-14T08:59:26;12.37;;;11.03;;
1691;SDS011;843;52.054;8.552;2023-12-14T09:01:52;11.77;;;10.57;;
1691;SDS011;843;52.054;8.552;2023-12-14T09:04:19;12.67;;;11.40;;
1691;SDS011;843;52.054;8.552;2023-12-14T09:06:46;12.70;;;11.20;;
1691;SDS011;843;52.054;8.552;2023-12-14T09:09:12;13.90;;;12.47;;
1691;SDS011;843;52.054;8.552;2023-12-14T09:11:38;14.03;;;11.97;;
1691;SDS011;843;52.054;8.552;2023-12-14T09:14:07;14.77;;;12.10;;
1691;SDS011;843;52.054;8.552;2023-12-14T09:16:33;15.63;;;12.30;;
1691;SDS011;843;52.054;8.552;2023-12-14T09:18:59;14.00;;;12.50;;
1691;SDS011;843;52.054;8.552;2023-12-14T09:21:26;14.57;;;12.43;;
1691;SDS011;843;52.054;8.552;2023-12-14T09:23:52;17.23;;;11.50;;
1691;SDS011;843;52.054;8.552;2023-12-14T09:26:19;12.97;;;11.67;;
1691;SDS011;843;52.054;8.552;2023-12-14T09:28:45;13.37;;;11.97;;
1691;SDS011;843;52.054;8.552;2023-12-14T09:31:13;14.30;;;12.53;;
1691;SDS011;843;52.054;8.552;2023-12-14T09:33:41;13.73;;;12.30;;
1691;SDS011;843;52.054;8.552;2023-12-14T09:36:08;11.63;;;10.37;;
1691;SDS011;843;52.054;8.552;2023-12-14T09:38:35;13.53;;;12.13;;
1691;SDS011;843;52.054;8.552;2023-12-14T09:41:01;13.87;;;12.37;;
1691;SDS011;843;52.054;8.552;2023-12-14T09:43:27;13.37;;;11.97;;
1691;SDS011;843;52.054;8.552;2023-12-14T09:45:54;14.53;;;11.90;;
1691;SDS011;843;52.054;8.552;2023-12-14T09:48:22;12.93;;;11.63;;
1691;SDS011;843;52.054;8.552;2023-12-14T09:50:49;11.33;;;10.27;;
1691;SDS011;843;52.054;8.552;2023-12-14T09:53:16;12.10;;;10.90;;
1691;SDS011;843;52.054;8.552;2023-12-14T09:55:43;12.53;;;11.33;;
1691;SDS011;843;52.054;8.552;2023-12-14T09:58:09;12.00;;;10.80;;
1691;SDS011;843;52.054;8.552;2023-12-14T10:00:38;11.53;;;10.43;;
1691;SDS011;843;52.054;8.552;2023-12-14T10:05:47;10.23;;;9.23;;
1691;SDS011;843;52.054;8.552;2023-12-14T10:08:14;11.43;;;10.20;;
1691;SDS011;843;52.054;8.552;2023-12-14T10:10:41;11.47;;;10.40;;
1691;SDS011;843;52.054;8.552;2023-12-14T10:13:07;10.97;;;9.87;;
1691;SDS011;843;52.054;8.552;2023-12-14T10:15:40;13.33;;;11.90;;
1691;SDS011;843;52.054;8.552;2023-12-14T10:18:06;10.70;;;9.60;;
1691;SDS011;843;52.054;8.552;2023-12-14T10:20:33;10.90;;;9.90;;
1691;SDS011;843;52.054;8.552;2023-12-14T10:23:00;11.70;;;10.50;;
1691;SDS011;843;52.054;8.552;2023-12-14T10:25:27;10.63;;;8.83;;
1691;SDS011;843;52.054;8.552;2023-12-14T10:27:54;11.83;;;10.67;;
1691;SDS011;843;52.054;8.552;2023-12-14T10:30:20;10.43;;;9.33;;
1691;SDS011;843;52.054;8.552;2023-12-14T10:32:46;13.37;;;10.60;;
1691;SDS011;843;52.054;8.552;2023-12-14T10:35:13;13.53;;;10.83;;
1691;SDS011;843;52.054;8.552;2023-12-14T10:37:41;10.53;;;9.43;;
1691;SDS011;843;52.054;8.552;2023-12-14T10:40:10;11.40;;;9.77;;
1691;SDS011;843;52.054;8.552;2023-12-14T10:42:36;10.37;;;9.37;;
1691;SDS011;843;52.054;8.552;2023-12-14T10:45:04;11.33;;;9.40;;
1691;SDS011;843;52.054;8.552;2023-12-14T10:47:31;11.43;;;10.03;;
1691;SDS011;843;52.054;8.552;2023-12-14T10:50:00;11.07;;;9.97;;
1691;SDS011;843;52.054;8.552;2023-12-14T10:52:26;12.67;;;11.40;;
1691;SDS011;843;52.054;8.552;2023-12-14T10:54:56;11.10;;;10.10;;
1691;SDS011;843;52.054;8.552;2023-12-14T10:57:24;11.50;;;10.47;;
1691;SDS011;843;52.054;8.552;2023-12-14T10:59:55;13.07;;;11.53;;
1691;SDS011;843;52.054;8.552;2023-12-14T11:02:23;11.43;;;10.17;;
1691;SDS011;843;52.054;8.552;2023-12-14T11:04:56;11.40;;;10.40;;
1691;SDS011;843;52.054;8.552;2023-12-14T11:10:09;10.50;;;9.50;;
1691;SDS011;843;52.054;8.552;2023-12-14T11:12:38;10.03;;;9.13;;
1691;SDS011;843;52.054;8.552;2023-12-14T11:15:04;9.73;;;8.90;;
1691;SDS011;843;52.054;8.552;2023-12-14T11:17:31;15.60;;;14.40;;
1691;SDS011;843;52.054;8.552;2023-12-14T11:20:03;15.53;;;14.23;;
1691;SDS011;843;52.054;8.552;2023-12-14T11:22:49;13.13;;;11.93;;
1691;SDS011;843;52.054;8.552;2023-12-14T11:25:16;10.10;;;9.30;;
1691;SDS011;843;52.054;8.552;2023-12-14T11:27:43;12.53;;;11.57;;
1691;SDS011;843;52.054;8.552;2023-12-14T11:30:10;13.50;;;12.40;;
1691;SDS011;843;52.054;8.552;2023-12-14T11:32:37;12.50;;;11.60;;
1691;SDS011;843;52.054;8.552;2023-12-14T11:35:04;12.70;;;11.70;;
1691;SDS011;843;52.054;8.552;2023-12-14T11:37:33;12.13;;;11.13;;
1691;SDS011;843;52.054;8.552;2023-12-14T11:40:00;12.47;;;11.60;;
1691;SDS011;843;52.054;8.552;2023-12-14T11:42:30;8.50;;;7.60;;
1691;SDS011;843;52.054;8.552;2023-12-14T11:44:59;11.60;;;10.70;;
1691;SDS011;843;52.054;8.552;2023-12-14T11:47:25;11.80;;;10.80;;
1691;SDS011;843;52.054;8.552;2023-12-14T11:49:51;10.03;;;9.03;;
1691;SDS011;843;52.054;8.552;2023-12-14T11:52:18;8.93;;;8.13;;
1691;SDS011;843;52.054;8.552;2023-12-14T11:54:44;9.33;;;8.53;;
1691;SDS011;843;52.054;8.552;2023-12-14T11:57:11;12.67;;;11.67;;
1691;SDS011;843;52.054;8.552;2023-12-14T11:59:37;11.63;;;10.63;;
1691;SDS011;843;52.054;8.552;2023-12-14T12:02:05;11.60;;;9.80;;
1691;SDS011;843;52.054;8.552;2023-12-14T12:04:32;10.23;;;9.10;;
1691;SDS011;843;52.054;8.552;2023-12-14T12:07:00;10.00;;;9.20;;
1691;SDS011;843;52.054;8.552;2023-12-14T12:09:36;9.00;;;8.20;;
1691;SDS011;843;52.054;8.552;2023-12-14T12:12:05;10.43;;;9.50;;
1691;SDS011;843;52.054;8.552;2023-12-14T12:14:31;9.80;;;8.90;;
1691;SDS011;843;52.054;8.552;2023-12-14T12:16:58;9.23;;;8.43;;
1691;SDS011;843;52.054;8.552;2023-12-14T12:19:26;11.67;;;10.57;;
1691;SDS011;843;52.054;8.552;2023-12-14T12:21:52;9.63;;;8.73;;
1691;SDS011;843;52.054;8.552;2023-12-14T12:24:18;10.00;;;9.20;;
1691;SDS011;843;52.054;8.552;2023-12-14T12:26:45;9.90;;;9.00;;
1691;SDS011;843;52.054;8.552;2023-12-14T12:29:11;9.30;;;8.50;;
1691;SDS011;843;52.054;8.552;2023-12-14T12:31:38;10.37;;;9.47;;
1691;SDS011;843;52.054;8.552;2023-12-14T12:34:05;9.73;;;8.93;;
1691;SDS011;843;52.054;8.552;2023-12-14T12:36:32;9.30;;;8.60;;
1691;SDS011;843;52.054;8.552;2023-12-14T12:38:59;10.03;;;9.30;;
1691;SDS011;843;52.054;8.552;2023-12-14T12:41:25;9.73;;;8.93;;
1691;SDS011;843;52.054;8.552;2023-12-14T12:43:52;10.27;;;9.37;;
1691;SDS011;843;52.054;8.552;2023-12-14T12:46:18;9.83;;;9.10;;
1691;SDS011;843;52.054;8.552;2023-12-14T12:48:45;8.67;;;7.90;;
1691;SDS011;843;52.054;8.552;2023-12-14T12:51:12;9.10;;;8.30;;
1691;SDS011;843;52.054;8.552;2023-12-14T12:53:40;8.97;;;7.90;;
1691;SDS011;843;52.054;8.552;2023-12-14T12:56:06;9.03;;;8.23;;
1691;SDS011;843;52.054;8.552;2023-12-14T12:58:33;9.20;;;8.50;;
1691;SDS011;843;52.054;8.552;2023-12-14T13:00:59;9.50;;;8.80;;
1691;SDS011;843;52.054;8.552;2023-12-14T13:03:25;9.60;;;8.70;;
1691;SDS011;843;52.054;8.552;2023-12-14T13:05:52;9.67;;;8.97;;
1691;SDS011;843;52.054;8.552;2023-12-14T13:08:18;7.97;;;7.37;;
1691;SDS011;843;52.054;8.552;2023-12-14T13:10:48;9.07;;;8.23;;
1691;SDS011;843;52.054;8.552;2023-12-14T13:13:16;9.20;;;8.40;;
1691;SDS011;843;52.054;8.552;2023-12-14T13:15:43;9.27;;;8.63;;
1691;SDS011;843;52.054;8.552;2023-12-14T13:18:09;9.70;;;8.90;;
1691;SDS011;843;52.054;8.552;2023-12-14T13:20:36;7.97;;;7.40;;
1691;SDS011;843;52.054;8.552;2023-12-14T13:23:02;8.40;;;7.70;;
1691;SDS011;843;52.054;8.552;2023-12-14T13:25:28;8.73;;;8.03;;
1691;SDS011;843;52.054;8.552;2023-12-14T13:27:56;9.10;;;8.40;;
1691;SDS011;843;52.054;8.552;2023-12-14T13:30:23;7.57;;;6.97;;
1691;SDS011;843;52.054;8.552;2023-12-14T13:32:49;8.00;;;7.30;;
1691;SDS011;843;52.054;8.552;2023-12-14T13:35:15;8.40;;;7.70;;
1691;SDS011;843;52.054;8.552;2023-12-14T13:37:42;8.10;;;7.40;;
1691;SDS011;843;52.054;8.552;2023-12-14T13:40:08;7.73;;;7.03;;
1691;SDS011;843;52.054;8.552;2023-12-14T13:42:35;7.80;;;7.20;;
1691;SDS011;843;52.054;8.552;2023-12-14T13:45:04;8.40;;;7.80;;
1691;SDS011;843;52.054;8.552;2023-12-14T13:47:30;7.97;;;7.37;;
1691;SDS011;843;52.054;8.552;2023-12-14T13:49:57;9.03;;;8.40;;
1691;SDS011;843;52.054;8.552;2023-12-14T13:52:23;8.60;;;8.00;;
1691;SDS011;843;52.054;8.552;2023-12-14T13:54:50;8.33;;;7.63;;
1691;SDS011;843;52.054;8.552;2023-12-14T13:57:16;8.47;;;7.87;;
1691;SDS011;843;52.054;8.552;2023-12-14T13:59:43;8.77;;;7.97;;
1691;SDS011;843;52.054;8.552;2023-12-14T14:02:11;8.37;;;7.77;;
1691;SDS011;843;52.054;8.552;2023-12-14T14:04:38;8.70;;;8.10;;
1691;SDS011;843;52.054;8.552;2023-12-14T14:07:04;8.67;;;7.87;;
1691;SDS011;843;52.054;8.552;2023-12-14T14:09:31;8.93;;;8.13;;
1691;SDS011;843;52.054;8.552;2023-12-14T14:11:58;8.27;;;7.60;;
1691;SDS011;843;52.054;8.552;2023-12-14T14:14:24;8.97;;;8.23;;
1691;SDS011;843;52.054;8.552;2023-12-14T14:16:50;8.77;;;7.97;;
1691;SDS011;843;52.054;8.552;2023-12-14T14:19:18;10.63;;;9.60;;
1691;SDS011;843;52.054;8.552;2023-12-14T14:21:45;9.23;;;8.53;;
1691;SDS011;843;52.054;8.552;2023-12-14T14:24:11;9.00;;;8.20;;
1691;SDS011;843;52.054;8.552;2023-12-14T14:26:37;9.90;;;9.10;;
1691;SDS011;843;52.054;8.552;2023-12-14T14:29:04;10.07;;;9.20;;
1691;SDS011;843;52.054;8.552;2023-12-14T14:31:30;8.03;;;7.23;;
1691;SDS011;843;52.054;8.552;2023-12-14T14:33:58;9.50;;;8.60;;
1691;SDS011;843;52.054;8.552;2023-12-14T14:36:25;9.73;;;8.90;;
1691;SDS011;843;52.054;8.552;2023-12-14T14:38:52;9.30;;;8.50;;
1691;SDS011;843;52.054;8.552;2023-12-14T14:41:20;9.97;;;8.97;;
1691;SDS011;843;52.054;8.552;2023-12-14T14:43:46;8.77;;;8.10;;
1691;SDS011;843;52.054;8.552;2023-12-14T14:46:13;9.70;;;8.90;;
1691;SDS011;843;52.054;8.552;2023-12-14T14:48:39;9.73;;;8.83;;
1691;SDS011;843;52.054;8.552;2023-12-14T14:51:06;10.47;;;9.47;;
1691;SDS011;843;52.054;8.552;2023-12-14T14:53:34;11.20;;;10.30;;
1691;SDS011;843;52.054;8.552;2023-12-14T14:56:02;10.53;;;9.40;;
1691;SDS011;843;52.054;8.552;2023-12-14T14:58:28;9.73;;;8.93;;
1691;SDS011;843;52.054;8.552;2023-12-14T15:00:55;10.43;;;9.57;;
1691;SDS011;843;52.054;8.552;2023-12-14T15:03:22;11.63;;;9.43;;
1691;SDS011;843;52.054;8.552;2023-12-14T15:05:48;10.73;;;9.73;;
1691;SDS011;843;52.054;8.552;2023-12-14T15:08:15;9.50;;;8.70;;
1691;SDS011;843;52.054;8.552;2023-12-14T15:10:43;9.60;;;8.70;;
1691;SDS011;843;52.054;8.552;2023-12-14T15:13:09;9.70;;;8.80;;
1691;SDS011;843;52.054;8.552;2023-12-14T15:15:35;9.80;;;8.90;;